Time;durP1;ratioP1;P1;durP2;ratioP2;P2;SDS_P1;SDS_P2;PMS_P1;PMS_P2;Temp;Humidity;BMP_temperature;BMP_pressure;BME280_temperature;BME280_humidity;BME280_pressure;Samples;Min_cycle;Max_cycle;Signal;HPM_P1;HPM_P2
2022/10/04 00:01:25;;;;;;;31.83;9.73;;;12.10;99.90;;;;;;4992333;28;20046;-77
2022/10/04 00:04:06;;;;;;;30.35;9.05;;;12.00;99.90;;;;;;4993324;28;20046;-76
2022/10/04 00:06:33;;;;;;;30.55;9.65;;;12.00;99.90;;;;;;4996051;28;20462;-75
2022/10/04 00:09:16;;;;;;;28.33;8.75;;;12.00;99.90;;;;;;4995888;28;20169;-76
2022/10/04 00:11:46;;;;;;;26.17;9.35;;;12.00;99.90;;;;;;4996668;28;20602;-75
2022/10/04 00:14:24;;;;;;;24.10;9.18;;;11.90;99.90;;;;;;4996013;28;20137;-76
2022/10/04 00:16:51;;;;;;;23.77;9.90;;;11.90;99.90;;;;;;5012359;28;20188;-78
2022/10/04 00:19:25;;;;;;;;;;;11.90;99.90;;;;;;5012635;28;20462;-76
2022/10/04 00:21:51;;;;;;;20.45;9.10;;;12.00;99.90;;;;;;4997791;28;20336;-79
2022/10/04 00:24:22;;;;;;;26.25;9.68;;;11.90;99.90;;;;;;4996069;28;20050;-76
2022/10/04 00:26:47;;;;;;;20.25;9.35;;;12.00;99.90;;;;;;4995701;28;20054;-76
2022/10/04 00:29:25;;;;;;;32.95;9.98;;;12.00;99.90;;;;;;4996565;28;20049;-76
2022/10/04 00:32:09;;;;;;;30.77;10.15;;;12.10;99.90;;;;;;4995054;28;20399;-79
2022/10/04 00:34:36;;;;;;;29.80;9.60;;;12.00;99.90;;;;;;4995644;28;20043;-76
2022/10/04 00:37:13;;;;;;;21.92;10.20;;;12.00;99.90;;;;;;4996917;28;20055;-76
2022/10/04 00:39:41;;;;;;;25.95;10.32;;;12.00;99.90;;;;;;4979246;28;20078;-76
2022/10/04 00:42:40;;;;;;;37.30;9.63;;;12.00;99.90;;;;;;4995883;28;20050;-76
2022/10/04 00:45:19;;;;;;;27.38;9.90;;;12.00;99.90;;;;;;4987387;28;20145;-76
2022/10/04 00:47:47;;;;;;;26.08;9.50;;;12.10;99.90;;;;;;4996481;28;20202;-75
2022/10/04 00:50:25;;;;;;;27.10;9.93;;;12.00;99.90;;;;;;4994975;28;20053;-75
2022/10/04 00:52:56;;;;;;;26.52;9.75;;;12.00;99.90;;;;;;5012078;28;20057;-76
2022/10/04 00:55:35;;;;;;;25.05;10.23;;;12.00;99.90;;;;;;4995590;28;20499;-76
2022/10/04 00:58:03;;;;;;;22.42;9.38;;;12.00;99.90;;;;;;4996511;28;20130;-74
2022/10/04 01:00:32;;;;;;;28.95;9.95;;;12.10;99.90;;;;;;4996633;28;20105;-76
2022/10/04 01:03:06;;;;;;;28.70;10.55;;;12.10;99.90;;;;;;4995765;28;20454;-76
2022/10/04 01:05:55;;;;;;;28.88;10.77;;;12.10;99.90;;;;;;4996079;28;20054;-75
2022/10/04 01:08:27;;;;;;;25.00;9.25;;;12.10;99.90;;;;;;4995036;28;20486;-76
2022/10/04 01:11:19;;;;;;;29.00;10.02;;;9.80;99.90;;;;;;4995616;28;20141;-76
2022/10/04 01:13:52;;;;;;;23.20;9.90;;;12.10;99.90;;;;;;4996183;28;20046;-76
2022/10/04 01:16:23;;;;;;;25.40;10.50;;;12.10;99.90;;;;;;4996475;28;20177;-77
2022/10/04 01:18:49;;;;;;;28.35;9.98;;;12.10;99.90;;;;;;4978397;28;20045;-75
2022/10/04 01:21:18;;;;;;;27.30;10.50;;;12.10;99.90;;;;;;4995836;28;20106;-75
2022/10/04 01:23:46;;;;;;;24.63;10.30;;;12.00;99.90;;;;;;4994460;28;20053;-77
2022/10/04 01:26:33;;;;;;;26.88;10.35;;;12.00;99.90;;;;;;4995522;28;20543;-75
2022/10/04 01:29:00;;;;;;;;;;;12.00;99.90;;;;;;4995032;28;20419;-77
2022/10/04 01:31:28;;;;;;;21.40;9.20;;;12.00;99.90;;;;;;4996269;28;19922;-76
2022/10/04 01:33:54;;;;;;;26.88;9.90;;;12.00;99.90;;;;;;4996831;28;20046;-75
2022/10/04 01:36:21;;;;;;;22.33;9.18;;;12.00;99.90;;;;;;4995661;28;20125;-75
2022/10/04 01:38:47;;;;;;;29.87;10.43;;;12.00;99.90;;;;;;4995202;28;20058;-76
2022/10/04 01:41:17;;;;;;;24.17;9.13;;;12.00;99.90;;;;;;4995078;28;20436;-75
2022/10/04 01:43:47;;;;;;;24.40;9.95;;;12.10;99.90;;;;;;4994506;28;20054;-75
2022/10/04 01:46:35;;;;;;;23.40;8.88;;;12.00;99.90;;;;;;4995298;28;20049;-76
2022/10/04 01:49:06;;;;;;;22.70;9.55;;;12.00;99.90;;;;;;4994986;28;20124;-77
2022/10/04 01:52:04;;;;;;;25.20;10.07;;;12.00;99.90;;;;;;4994148;28;20050;-76
2022/10/04 01:54:38;;;;;;;21.70;9.18;;;12.00;99.90;;;;;;4995074;28;20069;-76
2022/10/04 01:57:15;;;;;;;27.08;9.50;;;11.90;99.90;;;;;;4995084;28;20049;-76
2022/10/04 01:59:58;;;;;;;27.67;8.75;;;11.90;99.90;;;;;;4995125;28;20568;-77
2022/10/04 02:03:04;;;;;;;23.27;8.57;;;11.90;99.90;;;;;;4995908;28;20050;-75
2022/10/04 02:05:35;;;;;;;20.63;8.80;;;11.90;99.90;;;;;;4983065;28;20065;-76
2022/10/04 02:08:07;;;;;;;23.45;9.27;;;11.90;99.90;;;;;;5014490;28;20046;-75
2022/10/04 02:10:37;;;;;;;27.30;9.80;;;11.90;99.90;;;;;;4998447;28;20118;-76
2022/10/04 02:13:08;;;;;;;23.02;9.73;;;11.80;99.90;;;;;;4999304;28;20151;-79
2022/10/04 02:15:37;;;;;;;19.88;8.80;;;11.80;99.90;;;;;;4999757;28;20094;-77
2022/10/04 02:18:09;;;;;;;24.02;9.82;;;11.80;99.90;;;;;;5001632;28;20057;-79
2022/10/04 02:20:38;;;;;;;24.85;9.52;;;11.70;99.90;;;;;;5028697;28;20133;-76
2022/10/04 02:23:05;;;;;;;23.48;9.50;;;11.60;99.90;;;;;;5002709;28;20125;-78
2022/10/04 02:25:31;;;;;;;25.75;10.18;;;11.50;99.90;;;;;;4995134;28;20054;-76
2022/10/04 02:27:57;;;;;;;28.65;10.65;;;11.40;99.90;;;;;;4994874;28;20054;-76
2022/10/04 02:30:23;;;;;;;23.77;9.82;;;11.30;99.90;;;;;;4992524;28;20050;-76
2022/10/04 02:33:02;;;;;;;26.02;10.27;;;11.30;99.90;;;;;;4995435;28;20371;-76
2022/10/04 02:35:30;;;;;;;22.45;9.60;;;11.20;99.90;;;;;;4993499;28;20046;-76
2022/10/04 02:38:25;;;;;;;23.73;9.88;;;11.20;99.90;;;;;;5009942;28;20089;-76
2022/10/04 02:41:03;;;;;;;25.75;10.77;;;11.10;99.90;;;;;;4992617;28;20159;-76
2022/10/04 02:43:40;;;;;;;23.30;10.18;;;11.10;99.90;;;;;;4994404;28;20042;-77
2022/10/04 02:46:26;;;;;;;32.60;10.55;;;11.00;99.90;;;;;;4994344;28;20117;-78
2022/10/04 02:48:58;;;;;;;28.70;10.90;;;11.00;99.90;;;;;;4994369;28;20062;-76
2022/10/04 02:51:42;;;;;;;33.03;11.38;;;11.00;99.90;;;;;;4993712;28;20061;-75
2022/10/04 02:54:39;;;;;;;25.45;11.07;;;10.90;99.90;;;;;;4994411;28;20129;-78
2022/10/04 02:57:11;;;;;;;27.85;10.00;;;10.90;99.90;;;;;;4994703;28;20111;-74
2022/10/04 02:59:38;;;;;;;27.67;10.55;;;10.80;99.90;;;;;;4994618;28;20050;-75
2022/10/04 03:02:27;;;;;;;28.80;11.25;;;10.80;99.90;;;;;;4994144;28;20161;-76
2022/10/04 03:04:57;;;;;;;25.45;10.88;;;10.80;99.90;;;;;;4993125;28;20073;-75
2022/10/04 03:07:24;;;;;;;28.48;10.75;;;10.70;99.90;;;;;;4993918;28;20053;-75
2022/10/04 03:09:50;;;;;;;26.73;11.25;;;10.80;99.90;;;;;;4993908;28;20511;-76
2022/10/04 03:12:16;;;;;;;28.27;11.73;;;10.70;99.90;;;;;;4993891;28;20078;-77
2022/10/04 03:14:42;;;;;;;32.30;12.23;;;10.60;99.90;;;;;;4992670;28;20112;-77
2022/10/04 03:17:10;;;;;;;24.63;11.07;;;10.60;99.90;;;;;;4992440;28;20157;-76
2022/10/04 03:19:37;;;;;;;27.20;11.57;;;10.60;99.90;;;;;;4992515;28;20065;-75
2022/10/04 03:22:10;;;;;;;27.73;10.73;;;10.60;99.90;;;;;;4993562;28;20078;-76
2022/10/04 03:24:45;;;;;;;24.63;10.70;;;10.60;99.90;;;;;;4993943;28;20046;-73
2022/10/04 03:27:18;;;;;;;32.67;11.60;;;10.60;99.90;;;;;;4993314;28;20142;-77
2022/10/04 03:29:44;;;;;;;26.30;10.73;;;10.60;99.90;;;;;;4992060;28;20451;-75
2022/10/04 03:32:14;;;;;;;30.42;11.48;;;10.60;99.90;;;;;;4992051;28;20170;-75
2022/10/04 03:34:47;;;;;;;30.90;10.90;;;10.60;99.90;;;;;;4993642;28;20050;-75
2022/10/04 03:37:15;;;;;;;27.02;12.05;;;10.60;99.90;;;;;;4993163;28;20510;-78
2022/10/04 03:39:45;;;;;;;36.65;12.45;;;10.50;99.90;;;;;;4992333;28;20054;-76
2022/10/04 03:42:17;;;;;;;30.58;12.52;;;10.60;99.90;;;;;;4993686;28;20391;-76
2022/10/04 03:44:45;;;;;;;36.08;12.80;;;10.50;99.90;;;;;;4993447;28;20049;-76
2022/10/04 03:47:15;;;;;;;32.83;12.93;;;10.40;99.90;;;;;;4992555;28;20054;-76
2022/10/04 03:49:43;;;;;;;31.55;13.07;;;10.40;99.90;;;;;;4993497;28;20142;-77
2022/10/04 03:52:28;;;;;;;39.35;13.77;;;10.30;99.90;;;;;;4993480;28;20046;-75
2022/10/04 03:54:59;;;;;;;37.00;13.20;;;10.30;99.90;;;;;;4990254;28;20116;-76
2022/10/04 03:57:25;;;;;;;35.17;13.10;;;10.20;99.90;;;;;;4993399;28;20084;-76
2022/10/04 03:59:51;;;;;;;34.13;13.65;;;10.20;99.90;;;;;;4993445;28;20155;-75
2022/10/04 04:02:37;;;;;;;27.33;13.65;;;10.20;99.90;;;;;;4993168;28;20042;-77
2022/10/04 04:05:09;;;;;;;32.83;14.60;;;10.20;99.90;;;;;;4994274;28;20133;-76
2022/10/04 04:07:45;;;;;;;34.17;14.32;;;10.10;99.90;;;;;;4992046;28;20109;-76
2022/10/04 04:10:22;;;;;;;39.10;13.57;;;10.10;99.90;;;;;;4992568;28;20050;-78
2022/10/04 04:13:10;;;;;;;40.38;14.10;;;10.20;99.90;;;;;;4992658;28;20278;-76
2022/10/04 04:15:40;;;;;;;29.52;13.50;;;10.00;99.90;;;;;;4994068;28;20050;-75
2022/10/04 04:18:17;;;;;;;37.28;15.13;;;10.20;99.90;;;;;;4994384;28;20074;-75
2022/10/04 04:20:44;;;;;;;;;;;10.00;99.90;;;;;;4994320;28;20046;-75
2022/10/04 04:23:10;;;;;;;35.13;14.02;;;10.10;99.90;;;;;;4976636;28;19995;-76
2022/10/04 04:25:40;;;;;;;36.42;15.50;;;10.10;99.90;;;;;;4993536;28;20065;-76
2022/10/04 04:28:30;;;;;;;37.92;15.77;;;9.90;99.90;;;;;;4993453;28;20133;-75
2022/10/04 04:31:18;;;;;;;41.25;15.32;;;10.30;99.90;;;;;;4993082;28;20042;-75
2022/10/04 04:34:14;;;;;;;42.50;16.50;;;10.00;99.90;;;;;;4992662;28;20054;-76
2022/10/04 04:36:40;;;;;;;34.90;15.57;;;9.90;99.90;;;;;;4992543;28;20057;-76
2022/10/04 04:39:39;;;;;;;38.90;15.50;;;9.80;99.90;;;;;;4992746;28;20133;-76
2022/10/04 04:42:11;;;;;;;39.10;17.00;;;10.20;99.90;;;;;;4993346;28;20043;-75
2022/10/04 04:44:45;;;;;;;43.67;16.55;;;9.80;99.90;;;;;;4993645;28;20046;-75
2022/10/04 04:47:27;;;;;;;38.30;15.68;;;9.80;99.90;;;;;;4993766;28;20054;-75
2022/10/04 04:49:56;;;;;;;37.00;16.73;;;9.80;99.90;;;;;;4993043;28;20053;-76
2022/10/04 04:52:26;;;;;;;41.92;16.83;;;9.90;99.90;;;;;;4991711;28;20105;-78
2022/10/04 04:54:54;;;;;;;41.53;16.75;;;10.10;99.90;;;;;;4997928;28;20056;-76
2022/10/04 04:57:21;;;;;;;40.13;16.25;;;10.00;99.90;;;;;;4997869;28;20050;-79
2022/10/04 04:59:54;;;;;;;39.53;17.00;;;10.10;99.90;;;;;;4996961;28;20105;-77
2022/10/04 05:02:50;;;;;;;43.97;17.75;;;9.80;99.90;;;;;;4996405;28;20050;-77
2022/10/04 05:05:19;;;;;;;37.90;16.45;;;9.70;99.90;;;;;;4996277;28;20142;-78
2022/10/04 05:07:46;;;;;;;34.90;16.15;;;9.80;99.90;;;;;;4996405;28;20053;-76
2022/10/04 05:10:32;;;;;;;36.67;16.27;;;9.70;99.90;;;;;;4996321;28;20505;-77
2022/10/04 05:13:03;;;;;;;49.97;18.27;;;9.80;99.90;;;;;;5002179;28;20038;-77
2022/10/04 05:15:38;;;;;;;34.47;16.77;;;9.70;99.90;;;;;;5004051;28;20129;-77
2022/10/04 05:18:28;;;;;;;41.83;18.23;;;9.70;99.90;;;;;;5014865;28;20057;-77
2022/10/04 05:20:56;;;;;;;39.92;17.80;;;9.70;99.90;;;;;;5007142;28;20042;-77
2022/10/04 05:23:22;;;;;;;46.03;18.30;;;9.70;99.90;;;;;;4997872;28;20076;-76
2022/10/04 05:25:49;;;;;;;47.70;19.50;;;9.80;99.90;;;;;;4996968;28;20072;-76
2022/10/04 05:28:16;;;;;;;45.72;19.02;;;9.70;99.90;;;;;;4997054;28;20085;-75
2022/10/04 05:30:57;;;;;;;38.72;18.35;;;9.70;99.90;;;;;;4996466;28;20042;-76
2022/10/04 05:33:48;;;;;;;43.75;19.58;;;9.60;99.90;;;;;;4996606;28;20065;-77
2022/10/04 05:36:52;;;;;;;45.50;19.85;;;9.60;99.90;;;;;;4996003;28;20049;-77
2022/10/04 05:39:42;;;;;;;47.47;19.83;;;9.60;99.90;;;;;;4991929;28;20054;-75
2022/10/04 05:42:25;;;;;;;47.08;19.77;;;9.70;99.90;;;;;;4995854;28;20123;-77
2022/10/04 05:44:53;;;;;;;49.35;20.92;;;9.50;99.90;;;;;;4996186;28;20120;-76
2022/10/04 05:47:23;;;;;;;41.53;19.85;;;9.50;99.90;;;;;;4995468;28;20057;-76
2022/10/04 05:49:53;;;;;;;49.35;19.45;;;9.50;99.90;;;;;;4996387;28;20353;-76
2022/10/04 05:52:34;;;;;;;49.58;20.75;;;9.60;99.90;;;;;;4994657;28;20050;-76
2022/10/04 05:55:20;;;;;;;56.42;20.52;;;9.60;99.90;;;;;;4995474;28;20043;-75
2022/10/04 05:57:52;;;;;;;48.25;18.63;;;9.60;99.90;;;;;;4995967;28;20053;-75
2022/10/04 06:00:20;;;;;;;49.33;20.45;;;9.60;99.90;;;;;;4996473;28;20171;-75
2022/10/04 06:03:04;;;;;;;41.55;20.30;;;9.60;99.90;;;;;;4995794;28;20038;-75
2022/10/04 06:05:50;;;;;;;44.65;19.70;;;9.70;99.90;;;;;;4994309;28;20057;-75
2022/10/04 06:08:35;;;;;;;45.55;19.20;;;9.70;99.90;;;;;;4997340;28;20145;-76
2022/10/04 06:11:13;;;;;;;44.22;19.77;;;9.80;99.90;;;;;;4981051;28;20050;-76
2022/10/04 06:14:07;;;;;;;47.80;21.20;;;9.80;99.90;;;;;;5000164;28;20054;-76
2022/10/04 06:16:47;;;;;;;43.38;19.85;;;9.80;99.90;;;;;;5006693;28;20208;-75
2022/10/04 06:19:52;;;;;;;40.88;18.38;;;9.80;99.90;;;;;;5006766;28;20057;-77
2022/10/04 06:22:22;;;;;;;51.53;21.52;;;9.90;99.90;;;;;;5011082;28;20062;-75
2022/10/04 06:24:56;;;;;;;44.53;20.67;;;9.90;99.90;;;;;;5008040;28;20046;-76
2022/10/04 06:27:35;;;;;;;50.22;21.30;;;9.80;99.90;;;;;;5003183;28;20054;-77
2022/10/04 06:30:17;;;;;;;50.10;22.02;;;9.80;99.90;;;;;;4999098;28;20051;-76
2022/10/04 06:33:13;;;;;;;53.67;23.40;;;9.80;99.90;;;;;;4998954;28;20455;-78
2022/10/04 06:35:51;;;;;;;47.70;20.90;;;9.80;99.90;;;;;;5000424;28;20131;-77
2022/10/04 06:38:19;;;;;;;50.10;22.48;;;9.80;99.90;;;;;;4999108;28;20439;-78
2022/10/04 06:41:01;;;;;;;52.72;21.73;;;9.80;99.90;;;;;;5000179;28;20153;-76
2022/10/04 06:43:36;;;;;;;54.08;22.85;;;9.80;99.90;;;;;;5000239;28;20065;-78
2022/10/04 06:46:21;;;;;;;54.40;24.45;;;9.80;99.90;;;;;;4998370;28;20057;-77
2022/10/04 06:49:06;;;;;;;54.95;24.05;;;9.80;99.90;;;;;;4994196;28;20073;-79
2022/10/04 06:51:49;;;;;;;52.70;22.90;;;9.90;99.90;;;;;;4994184;28;20380;-77
2022/10/04 06:54:37;;;;;;;54.85;22.67;;;10.00;99.90;;;;;;4996873;28;20046;-76
2022/10/04 06:57:31;;;;;;;51.08;22.45;;;10.10;99.90;;;;;;4994580;28;20046;-77
2022/10/04 07:00:18;;;;;;;49.30;21.98;;;10.10;99.90;;;;;;4996133;28;20129;-75
2022/10/04 07:03:03;;;;;;;48.75;24.67;;;10.20;99.90;;;;;;4997506;28;20053;-75
2022/10/04 07:05:41;;;;;;;54.33;23.05;;;10.40;99.90;;;;;;4993339;28;20065;-75
2022/10/04 07:08:31;;;;;;;53.53;23.15;;;10.50;99.90;;;;;;4994685;28;20372;-75
2022/10/04 07:11:12;;;;;;;52.05;23.02;;;10.60;99.90;;;;;;4996010;28;20046;-75
2022/10/04 07:13:39;;;;;;;56.42;24.85;;;10.70;99.90;;;;;;4995989;28;20097;-75
2022/10/04 07:16:08;;;;;;;48.88;23.27;;;10.90;99.90;;;;;;4994891;28;20379;-75
2022/10/04 07:18:46;;;;;;;45.83;23.27;;;11.00;99.90;;;;;;4995191;28;20104;-79
2022/10/04 07:21:15;;;;;;;51.15;23.95;;;11.10;99.90;;;;;;4993739;28;20077;-76
2022/10/04 07:23:56;;;;;;;53.15;24.30;;;11.20;99.90;;;;;;4993254;28;20042;-77
2022/10/04 07:26:32;;;;;;;54.20;22.75;;;11.30;99.90;;;;;;4995576;28;20129;-75
2022/10/04 07:29:20;;;;;;;48.40;23.45;;;11.40;99.90;;;;;;4993287;28;20382;-74
2022/10/04 07:31:49;;;;;;;51.55;23.95;;;11.40;99.90;;;;;;4992982;28;20116;-77
2022/10/04 07:34:27;;;;;;;46.03;22.08;;;11.40;99.90;;;;;;4992425;28;20046;-76
2022/10/04 07:37:01;;;;;;;42.78;22.92;;;11.40;99.90;;;;;;4976618;28;20050;-76
2022/10/04 07:39:46;;;;;;;47.00;22.65;;;11.30;99.90;;;;;;4993205;28;20474;-76
2022/10/04 07:42:30;;;;;;;50.05;23.25;;;11.40;99.90;;;;;;4976430;28;20173;-76
2022/10/04 07:45:20;;;;;;;53.53;22.38;;;11.40;99.90;;;;;;4993199;28;20054;-76
2022/10/04 07:47:46;;;;;;;54.50;23.45;;;11.40;99.90;;;;;;4993349;28;20058;-75
2022/10/04 07:50:37;;;;;;;49.63;22.10;;;11.50;99.90;;;;;;4993123;28;20486;-75
2022/10/04 07:53:20;;;;;;;43.92;21.38;;;11.70;99.90;;;;;;4992400;28;20150;-76
2022/10/04 07:56:06;;;;;;;44.67;21.50;;;11.80;99.90;;;;;;4993281;28;20108;-75
2022/10/04 07:58:33;;;;;;;;;;;12.00;99.90;;;;;;4993311;28;20061;-76
2022/10/04 08:00:59;;;;;;;;;;;12.10;99.90;;;;;;4994021;28;19991;-78
2022/10/04 08:04:02;;;;;;;38.20;19.30;;;12.20;99.90;;;;;;5008697;28;19925;-74
2022/10/04 08:06:42;;;;;;;38.42;18.77;;;12.20;99.90;;;;;;4984634;28;20056;-75
2022/10/04 08:09:44;;;;;;;36.72;19.77;;;12.20;99.90;;;;;;4993042;28;20054;-75
2022/10/04 08:12:18;;;;;;;36.70;18.98;;;12.20;99.90;;;;;;5001398;28;20051;-74
2022/10/04 08:15:11;;;;;;;41.35;19.02;;;12.10;99.90;;;;;;4998960;28;20046;-74
2022/10/04 08:17:40;;;;;;;48.85;20.10;;;12.10;99.90;;;;;;5006321;28;20077;-77
2022/10/04 08:20:25;;;;;;;43.42;21.05;;;12.10;99.90;;;;;;4999509;28;20077;-76
2022/10/04 08:23:19;;;;;;;40.22;20.17;;;12.10;99.90;;;;;;4994211;28;20092;-76
2022/10/04 08:26:19;;;;;;;40.50;18.60;;;12.20;99.90;;;;;;4991963;28;20050;-75
2022/10/04 08:32:22;;;;;;;41.92;19.02;;;12.40;99.90;;;;;;4997062;28;20352;-76
2022/10/04 08:35:10;;;;;;;39.90;18.95;;;12.50;99.90;;;;;;4979565;28;20133;-77
2022/10/04 08:38:13;;;;;;;36.63;18.80;;;12.50;99.90;;;;;;4996463;28;20471;-77
2022/10/04 08:41:07;;;;;;;34.78;17.67;;;12.60;99.90;;;;;;4997109;28;20351;-77
2022/10/04 08:43:59;;;;;;;35.65;17.70;;;12.70;99.90;;;;;;4996923;28;20050;-77
2022/10/04 08:46:52;;;;;;;37.58;17.05;;;12.80;99.90;;;;;;4996925;28;20390;-76
2022/10/04 08:49:36;;;;;;;31.60;16.92;;;12.90;99.90;;;;;;4996637;28;20125;-76
2022/10/04 08:52:39;;;;;;;34.58;16.88;;;12.90;99.90;;;;;;4996119;28;20056;-77
2022/10/04 08:55:33;;;;;;;30.60;15.73;;;12.90;99.90;;;;;;4994998;28;20054;-80
2022/10/04 08:58:19;;;;;;;33.85;15.15;;;13.00;99.90;;;;;;4995855;28;20050;-75
2022/10/04 09:00:59;;;;;;;37.42;16.63;;;13.10;99.90;;;;;;4995262;28;20046;-80
2022/10/04 09:03:44;;;;;;;33.03;16.23;;;13.10;99.90;;;;;;4996278;28;20104;-76
2022/10/04 09:06:19;;;;;;;32.75;14.82;;;13.30;99.90;;;;;;4995842;28;20514;-75
2022/10/04 09:09:23;;;;;;;32.60;15.98;;;13.30;99.90;;;;;;4997434;28;20077;-77
2022/10/04 09:11:55;;;;;;;31.13;14.90;;;13.40;99.90;;;;;;4996405;28;20061;-74
2022/10/04 09:14:33;;;;;;;37.53;15.68;;;13.40;99.90;;;;;;4996755;28;20054;-76
2022/10/04 09:17:22;;;;;;;30.85;15.85;;;13.50;99.90;;;;;;4996316;28;20082;-74
2022/10/04 09:20:21;;;;;;;36.70;13.85;;;13.60;99.90;;;;;;4998038;28;20061;-77
2022/10/04 09:22:56;;;;;;;29.13;13.02;;;13.70;99.90;;;;;;4979485;28;20057;-82
2022/10/04 09:25:40;;;;;;;29.48;13.60;;;13.70;99.90;;;;;;4996154;28;20053;-76
2022/10/04 09:28:28;;;;;;;28.42;13.10;;;13.80;99.90;;;;;;4995639;28;20054;-75
2022/10/04 09:31:32;;;;;;;31.00;12.48;;;13.80;99.90;;;;;;4995643;28;20050;-75
2022/10/04 09:34:23;;;;;;;21.83;12.15;;;13.90;99.90;;;;;;4996894;28;20058;-73
2022/10/04 09:37:10;;;;;;;29.55;13.88;;;14.00;99.90;;;;;;4996194;28;20053;-81
2022/10/04 09:39:38;;;;;;;24.67;12.50;;;;;;;;;;4995442;28;20394;-76
2022/10/04 09:42:24;;;;;;;21.23;11.90;;;14.10;99.90;;;;;;4978437;28;20061;-77
2022/10/04 09:45:15;;;;;;;27.63;12.30;;;14.10;99.90;;;;;;4996359;28;20400;-76
2022/10/04 09:47:45;;;;;;;26.63;12.55;;;14.30;99.90;;;;;;4994667;28;20049;-78
2022/10/04 09:50:50;;;;;;;28.70;13.80;;;14.30;99.90;;;;;;4995860;28;20382;-74
2022/10/04 09:54:00;;;;;;;29.50;13.20;;;14.30;99.90;;;;;;4993082;28;20574;-77
2022/10/04 09:56:41;;;;;;;29.65;12.38;;;14.40;99.90;;;;;;4991096;28;20410;-75
2022/10/04 09:59:35;;;;;;;26.02;12.98;;;14.40;99.90;;;;;;4994953;28;20092;-76
2022/10/04 10:02:27;;;;;;;26.05;12.10;;;14.50;99.90;;;;;;4995143;28;20046;-73
2022/10/04 10:05:37;;;;;;;26.10;12.05;;;14.50;99.90;;;;;;4995296;28;20549;-76
2022/10/04 10:08:39;;;;;;;23.83;11.57;;;14.60;99.90;;;;;;4976724;28;20426;-75
2022/10/04 10:15:02;;;;;;;21.88;10.32;;;14.70;99.90;;;;;;4995552;28;20089;-77
2022/10/04 10:17:38;;;;;;;23.13;9.57;;;14.80;99.90;;;;;;4979031;28;20057;-76
2022/10/04 10:20:33;;;;;;;25.65;10.70;;;14.90;99.90;;;;;;5001522;28;20054;-75
2022/10/04 10:23:16;;;;;;;26.35;10.57;;;15.10;99.90;;;;;;4982886;28;20046;-77
2022/10/04 10:26:13;;;;;;;19.17;10.20;;;15.10;99.90;;;;;;5000739;28;20073;-76
2022/10/04 10:29:16;;;;;;;28.13;11.00;;;15.20;99.90;;;;;;5001299;28;20053;-76
2022/10/04 10:31:53;;;;;;;23.10;10.25;;;15.30;99.90;;;;;;5002693;28;20057;-76
2022/10/04 10:34:18;;;;;;;25.75;10.55;;;15.30;99.90;;;;;;5001275;28;20046;-76
2022/10/04 10:36:54;;;;;;;22.00;10.05;;;15.30;99.90;;;;;;4995479;28;20141;-77
2022/10/04 10:39:22;;;;;;;24.65;10.73;;;15.40;99.90;;;;;;5002506;28;20479;-75
2022/10/04 10:42:26;;;;;;;25.33;9.77;;;15.40;99.90;;;;;;5004450;28;20118;-77
2022/10/04 10:45:15;;;;;;;22.83;8.70;;;15.50;99.90;;;;;;5005051;28;20060;-74
2022/10/04 10:48:12;;;;;;;20.55;8.30;;;15.50;99.90;;;;;;5020151;28;20110;-79
2022/10/04 10:50:57;;;;;;;;;;;15.60;99.90;;;;;;5005802;28;20057;-76
2022/10/04 10:53:47;;;;;;;20.27;7.93;;;15.60;99.90;;;;;;5007802;28;20394;-78
2022/10/04 10:56:44;;;;;;;18.33;7.97;;;15.70;99.90;;;;;;5002429;28;20049;-76
2022/10/04 10:59:22;;;;;;;18.08;7.50;;;15.70;99.90;;;;;;4994548;28;20054;-76
2022/10/04 11:02:25;;;;;;;19.42;7.00;;;15.80;99.90;;;;;;4994281;28;20046;-77
2022/10/04 11:05:23;;;;;;;23.25;7.28;;;15.80;99.90;;;;;;4994858;28;20230;-77
2022/10/04 11:08:28;;;;;;;18.50;7.03;;;15.90;99.90;;;;;;4994566;28;20062;-76
2022/10/04 11:11:40;;;;;;;16.58;7.22;;;16.00;99.90;;;;;;4999550;28;20112;-77
2022/10/04 11:14:27;;;;;;;16.40;7.05;;;16.10;99.90;;;;;;5002128;28;20066;-77
2022/10/04 11:17:12;;;;;;;16.48;7.00;;;16.00;99.90;;;;;;5024361;28;20101;-78
2022/10/04 11:20:05;;;;;;;21.50;9.30;;;16.00;99.90;;;;;;5004388;28;20069;-76
2022/10/04 11:23:00;;;;;;;17.48;7.07;;;16.00;99.90;;;;;;4997530;28;20106;-77
2022/10/04 11:25:45;;;;;;;18.02;7.40;;;16.00;99.90;;;;;;4999278;28;20093;-77
2022/10/04 11:28:25;;;;;;;22.00;7.60;;;16.00;99.90;;;;;;4998715;28;20043;-74
2022/10/04 11:31:28;;;;;;;19.25;8.13;;;16.00;99.90;;;;;;4999307;28;20039;-76
2022/10/04 11:34:49;;;;;;;20.60;8.68;;;16.00;99.90;;;;;;4994586;28;20085;-78
2022/10/04 11:37:36;;;;;;;17.98;7.38;;;16.00;99.90;;;;;;4956955;28;20155;-75
2022/10/04 11:40:22;;;;;;;16.80;7.65;;;16.10;99.90;;;;;;4977596;28;20370;-75
2022/10/04 11:43:08;;;;;;;16.98;8.20;;;16.30;99.90;;;;;;4994018;28;20057;-78
2022/10/04 11:46:04;;;;;;;21.60;8.82;;;16.30;99.90;;;;;;4999613;28;20043;-75
2022/10/04 11:49:07;;;;;;;20.50;8.82;;;16.60;99.90;;;;;;4998852;28;20141;-76
2022/10/04 11:51:39;;;;;;;17.58;7.95;;;16.60;99.90;;;;;;4998497;28;20046;-75
2022/10/04 11:54:27;;;;;;;20.52;8.15;;;16.60;99.90;;;;;;5011610;28;20051;-77
2022/10/04 11:57:18;;;;;;;16.70;6.72;;;16.50;99.90;;;;;;4998104;28;20042;-76
2022/10/04 12:00:19;;;;;;;20.13;7.35;;;16.50;99.90;;;;;;4997181;28;20077;-77
2022/10/04 12:03:08;;;;;;;12.73;6.55;;;16.70;99.90;;;;;;4999289;28;20082;-77
2022/10/04 12:06:02;;;;;;;19.95;6.82;;;16.70;99.90;;;;;;4998769;28;20101;-75
2022/10/04 12:08:53;;;;;;;14.70;7.35;;;16.80;99.90;;;;;;5002544;28;20477;-77
2022/10/04 12:14:42;;;;;;;19.48;8.35;;;16.80;99.90;;;;;;5001061;28;20501;-76
2022/10/04 12:17:56;;;;;;;19.90;7.45;;;16.70;99.90;;;;;;5002865;28;20046;-75
2022/10/04 12:20:52;;;;;;;20.83;7.63;;;16.70;99.90;;;;;;4980080;28;20438;-73
2022/10/04 12:23:41;;;;;;;17.80;7.40;;;16.70;99.90;;;;;;4980944;28;20129;-75
2022/10/04 12:26:31;;;;;;;19.10;7.15;;;16.70;99.90;;;;;;4998896;28;20133;-78
2022/10/04 12:29:19;;;;;;;20.27;7.72;;;16.70;99.90;;;;;;4999512;28;20066;-76
2022/10/04 12:32:09;;;;;;;16.52;7.25;;;16.70;99.90;;;;;;5001375;28;20113;-80
2022/10/04 12:34:40;;;;;;;13.75;6.95;;;16.80;99.90;;;;;;4996515;28;20502;-77
2022/10/04 12:37:34;;;;;;;17.48;6.95;;;16.80;99.90;;;;;;4997931;28;20157;-79
2022/10/04 12:40:11;;;;;;;17.35;8.20;;;16.80;99.90;;;;;;4980242;28;20050;-75
2022/10/04 12:43:08;;;;;;;14.27;6.35;;;16.90;99.90;;;;;;5012477;28;20127;-77
2022/10/04 12:45:58;;;;;;;19.23;7.72;;;16.90;99.90;;;;;;4981331;28;20470;-74
2022/10/04 12:48:52;;;;;;;19.17;7.82;;;16.90;99.90;;;;;;4996892;28;20058;-75
2022/10/04 12:51:18;;;;;;;18.90;7.93;;;16.90;99.90;;;;;;4993672;28;20232;-79
2022/10/04 12:54:11;;;;;;;20.33;8.50;;;16.90;99.90;;;;;;4997370;28;20129;-76
2022/10/04 12:57:06;;;;;;;19.27;6.78;;;16.90;99.90;;;;;;4997403;28;20049;-76
2022/10/04 12:59:47;;;;;;;17.48;7.65;;;16.90;99.90;;;;;;4998123;28;20081;-78
2022/10/04 13:02:43;;;;;;;17.92;7.90;;;17.00;99.90;;;;;;4996508;28;20050;-78
2022/10/04 13:05:21;;;;;;;;;;;17.10;99.90;;;;;;4999127;28;20050;-76
2022/10/04 13:08:02;;;;;;;16.40;7.07;;;17.20;99.90;;;;;;4998528;28;19922;-76
2022/10/04 13:10:55;;;;;;;18.83;7.65;;;17.10;99.90;;;;;;4996443;28;20050;-74
2022/10/04 13:13:46;;;;;;;16.00;6.72;;;17.20;99.90;;;;;;4980387;28;20529;-76
2022/10/04 13:16:24;;;;;;;18.90;7.43;;;17.10;99.90;;;;;;4997604;28;20081;-81
2022/10/04 13:18:56;;;;;;;21.33;7.72;;;17.00;99.90;;;;;;4996934;28;20050;-76
2022/10/04 13:21:40;;;;;;;20.70;7.30;;;17.10;99.90;;;;;;4997495;28;20479;-77
2022/10/04 13:24:53;;;;;;;17.88;7.30;;;17.10;99.90;;;;;;5013277;28;20046;-76
2022/10/04 13:27:21;;;;;;;17.67;7.07;;;17.30;99.90;;;;;;4998851;28;20054;-76
2022/10/04 13:30:31;;;;;;;17.20;7.03;;;17.40;99.90;;;;;;4997359;28;20042;-77
2022/10/04 13:33:00;;;;;;;24.33;7.55;;;17.50;99.90;;;;;;4981682;28;20043;-76
2022/10/04 13:35:35;;;;;;;24.98;7.80;;;17.40;99.90;;;;;;4998645;28;20137;-75
2022/10/04 13:38:01;;;;;;;20.33;6.97;;;17.40;99.90;;;;;;4997764;28;20077;-76
2022/10/04 13:40:36;;;;;;;15.35;6.15;;;17.30;99.90;;;;;;4998319;28;20046;-75
2022/10/04 13:43:24;;;;;;;16.73;6.80;;;17.30;99.90;;;;;;4997147;28;20046;-78
2022/10/04 13:45:59;;;;;;;21.00;7.60;;;17.30;99.90;;;;;;4997706;28;20054;-75
2022/10/04 13:48:29;;;;;;;15.55;6.47;;;17.40;99.90;;;;;;4996424;28;20065;-78
2022/10/04 13:51:17;;;;;;;16.85;6.93;;;17.50;99.90;;;;;;5013604;28;20491;-77
2022/10/04 13:57:24;;;;;;;16.42;6.18;;;17.60;99.90;;;;;;5000413;28;20054;-78
2022/10/04 14:00:08;;;;;;;17.60;6.35;;;17.50;99.90;;;;;;4999630;28;20056;-78